Time;durP1;ratioP1;P1;durP2;ratioP2;P2;SDS_P1;SDS_P2;PMS_P1;PMS_P2;Temp;Humidity;BMP_temperature;BMP_pressure;BME280_temperature;BME280_humidity;BME280_pressure;Samples;Min_cycle;Max_cycle;Signal;HPM_P1;HPM_P2
2023/06/23 00:01:38;;;;;;;8.17;5.97;;;20.20;99.90;;;20.83;100.00;98171.09;5025427;28;20462;-80
2023/06/23 00:04:07;;;;;;;12.57;5.70;;;20.20;99.90;;;20.83;100.00;98177.19;5024592;28;20466;-80
2023/06/23 00:06:37;;;;;;;9.40;5.20;;;20.20;99.90;;;20.88;100.00;98181.78;5021179;28;20462;-81
2023/06/23 00:09:13;;;;;;;9.03;6.47;;;20.20;99.90;;;20.82;100.00;98185.44;5023809;28;21030;-81
2023/06/23 00:11:43;;;;;;;13.10;7.30;;;20.20;99.90;;;20.75;100.00;98185.63;5023710;28;20465;-80
2023/06/23 00:14:12;;;;;;;10.00;7.17;;;20.10;99.90;;;20.74;100.00;98191.19;5024638;28;20465;-81
2023/06/23 00:16:41;;;;;;;11.20;6.77;;;20.10;99.90;;;20.73;100.00;98193.03;5026925;28;21255;-80
2023/06/23 00:19:11;;;;;;;13.40;6.67;;;20.10;99.90;;;20.74;100.00;98184.03;5026411;28;20493;-80
2023/06/23 00:21:44;;;;;;;8.30;6.47;;;20.10;99.90;;;20.70;100.00;98190.06;5026126;28;20470;-80
2023/06/23 00:24:13;;;;;;;10.50;7.00;;;20.10;99.90;;;20.70;100.00;98187.41;5027627;28;20469;-80
2023/06/23 00:26:42;;;;;;;11.80;6.73;;;20.10;99.90;;;20.69;100.00;98185.84;5026082;28;20457;-80
2023/06/23 00:29:11;;;;;;;10.00;6.67;;;20.10;99.90;;;20.69;100.00;98183.19;5027999;28;20559;-80
2023/06/23 00:31:40;;;;;;;9.50;5.57;;;20.10;99.90;;;20.64;100.00;98185.75;5025352;28;20478;-81
2023/06/23 00:34:09;;;;;;;10.93;7.97;;;20.00;99.90;;;20.58;100.00;98187.56;5026136;28;20462;-80
2023/06/23 00:36:37;;;;;;;8.77;6.47;;;20.00;99.90;;;20.54;100.00;98184.59;5027331;28;20964;-81
2023/06/23 00:39:08;;;;;;;13.37;6.53;;;20.00;99.90;;;20.52;100.00;98186.69;5026884;28;20498;-80
2023/06/23 00:41:37;;;;;;;9.20;7.23;;;19.90;99.90;;;20.45;100.00;98196.69;5025968;28;20475;-80
2023/06/23 00:44:09;;;;;;;8.97;6.60;;;19.90;99.90;;;20.46;100.00;98203.63;5027350;28;21096;-80
2023/06/23 00:46:39;;;;;;;11.37;7.07;;;19.90;99.90;;;20.47;100.00;98197.25;5027576;28;20482;-81
2023/06/23 00:49:08;;;;;;;11.80;7.63;;;19.90;99.90;;;20.47;100.00;98212.41;5026753;28;20470;-80
2023/06/23 00:51:37;;;;;;;11.27;7.30;;;19.90;99.90;;;20.46;100.00;98218.75;5025328;28;20531;-80
2023/06/23 00:54:09;;;;;;;12.67;7.47;;;19.90;99.90;;;20.42;100.00;98214.97;5027738;28;21033;-80
2023/06/23 00:56:38;;;;;;;11.07;7.13;;;19.80;99.90;;;20.40;100.00;98215.25;5027057;28;20470;-80
2023/06/23 00:59:06;;;;;;;9.80;7.33;;;19.80;99.90;;;20.40;100.00;98225.88;5027800;28;21071;-80
2023/06/23 01:01:37;;;;;;;10.33;6.87;;;19.80;99.90;;;20.42;100.00;98229.06;5027643;28;20504;-80
2023/06/23 01:04:08;;;;;;;11.37;7.47;;;19.80;99.90;;;20.42;100.00;98234.38;5027513;28;20466;-81
2023/06/23 01:06:48;;;;;;;12.03;7.37;;;19.80;99.90;;;20.41;100.00;98231.97;5025801;28;20476;-80
2023/06/23 01:09:32;;;;;;;11.63;7.33;;;19.80;99.90;;;20.40;100.00;98235.69;5027165;28;20458;-80
2023/06/23 01:12:08;;;;;;;13.47;8.07;;;19.70;99.90;;;20.44;100.00;98237.59;5026413;28;20465;-80
2023/06/23 01:14:51;;;;;;;8.63;6.50;;;19.80;99.90;;;20.44;100.00;98237.59;5026041;28;20498;-80
2023/06/23 01:17:28;;;;;;;12.53;7.73;;;19.70;99.90;;;20.34;100.00;98247.28;5026267;28;20486;-80
2023/06/23 01:20:21;;;;;;;14.90;9.87;;;19.70;99.90;;;20.21;100.00;98243.09;5027044;28;20497;-81
2023/06/23 01:23:11;;;;;;;12.70;8.60;;;19.70;99.90;;;20.30;100.00;98251.47;5023680;28;20457;-80
2023/06/23 01:25:55;;;;;;;12.07;8.00;;;19.60;99.90;;;20.27;100.00;98258.06;5025967;28;20470;-80
2023/06/23 01:28:47;;;;;;;12.97;9.60;;;19.70;99.90;;;20.31;100.00;98259.19;5027258;28;20497;-80
2023/06/23 01:31:23;;;;;;;15.90;9.17;;;19.60;99.90;;;20.25;100.00;98256.69;5027014;28;20466;-80
2023/06/23 01:34:02;;;;;;;13.30;8.90;;;19.60;99.90;;;20.27;100.00;98246.63;5025327;28;20476;-80
2023/06/23 01:36:53;;;;;;;11.73;8.93;;;19.60;99.90;;;20.26;100.00;98251.13;5025878;28;20476;-80
2023/06/23 01:39:26;;;;;;;14.63;9.53;;;19.60;99.90;;;20.20;100.00;98251.31;5026505;28;20513;-80
2023/06/23 01:42:04;;;;;;;14.37;9.43;;;19.60;99.90;;;20.26;100.00;98256.44;5025254;28;20481;-81
2023/06/23 01:44:37;;;;;;;15.67;10.33;;;19.60;99.90;;;20.29;100.00;98258.66;5025726;28;20541;-80
2023/06/23 01:47:22;;;;;;;24.00;12.47;;;19.60;99.90;;;20.28;100.00;98265.00;5025310;28;20498;-80
2023/06/23 01:49:58;;;;;;;16.43;10.90;;;19.60;99.90;;;20.25;100.00;98273.41;5026267;28;20473;-80
2023/06/23 01:52:30;;;;;;;17.47;12.80;;;19.60;99.90;;;20.24;100.00;98276.31;5025475;28;20470;-80
2023/06/23 01:55:01;;;;;;;16.60;11.50;;;19.60;99.90;;;20.17;100.00;98281.78;5024283;28;20546;-80
2023/06/23 01:57:33;;;;;;;17.60;11.20;;;19.60;99.90;;;20.14;100.00;98279.63;5025220;28;21179;-80
2023/06/23 02:00:11;;;;;;;16.57;11.07;;;19.60;99.90;;;20.12;100.00;98279.06;5026349;28;20513;-82
2023/06/23 02:02:41;;;;;;;17.50;11.53;;;19.50;99.90;;;20.10;100.00;98295.22;5025716;28;20465;-80
2023/06/23 02:05:13;;;;;;;15.53;10.97;;;19.50;99.90;;;20.16;100.00;98298.78;5025417;28;20457;-80
2023/06/23 02:07:47;;;;;;;14.20;10.30;;;19.50;99.90;;;20.17;100.00;98297.72;5026279;28;20454;-80
2023/06/23 02:10:18;;;;;;;19.43;11.97;;;19.50;99.90;;;20.08;100.00;98301.84;5025325;28;20508;-80
2023/06/23 02:12:49;;;;;;;19.70;12.90;;;19.50;99.90;;;20.12;100.00;98297.66;5025144;28;20528;-80
2023/06/23 02:15:22;;;;;;;17.23;11.73;;;19.50;99.90;;;20.16;100.00;98306.75;5023658;28;20552;-80
2023/06/23 02:17:54;;;;;;;16.10;11.07;;;19.50;99.90;;;20.17;100.00;98311.00;5024202;28;20469;-79
2023/06/23 02:20:24;;;;;;;18.50;12.73;;;19.50;99.90;;;20.19;100.00;98316.09;5026004;28;20551;-81
2023/06/23 02:22:54;;;;;;;16.57;11.17;;;19.50;99.90;;;20.15;100.00;98318.41;5024928;28;20969;-79
2023/06/23 02:25:25;;;;;;;19.77;13.40;;;19.50;99.90;;;20.09;100.00;98324.69;5024087;28;20496;-80
2023/06/23 02:27:56;;;;;;;23.93;15.67;;;19.50;99.90;;;20.06;100.00;98325.19;5024993;28;20876;-80
2023/06/23 02:30:27;;;;;;;16.83;13.17;;;19.50;99.90;;;19.99;100.00;98332.50;5024025;28;20885;-80
2023/06/23 02:32:56;;;;;;;19.73;12.90;;;19.50;99.90;;;20.07;100.00;98321.47;5026245;28;20461;-80
2023/06/23 02:35:25;;;;;;;19.03;12.60;;;19.40;99.90;;;20.06;100.00;98325.19;5024338;28;21118;-80
2023/06/23 02:38:01;;;;;;;23.10;15.33;;;19.50;99.90;;;20.04;100.00;98328.06;5024410;28;20496;-80
2023/06/23 02:40:35;;;;;;;22.50;15.37;;;19.50;99.90;;;20.03;100.00;98323.78;5024154;28;20495;-80
2023/06/23 02:43:14;;;;;;;26.50;15.57;;;19.50;99.90;;;19.96;100.00;98332.97;5023383;28;20969;-80
2023/06/23 02:45:50;;;;;;;26.17;17.47;;;19.50;99.90;;;19.93;100.00;98333.44;5024259;28;20454;-80
2023/06/23 02:48:25;;;;;;;21.93;15.30;;;19.50;99.90;;;19.99;100.00;98335.94;5025415;28;20496;-80
2023/06/23 02:50:58;;;;;;;21.50;14.00;;;19.40;99.90;;;20.07;100.00;98342.72;5024929;28;20476;-80
2023/06/23 02:53:34;;;;;;;21.97;14.87;;;19.40;99.90;;;20.12;100.00;98339.34;5024615;28;20449;-80
2023/06/23 02:56:11;;;;;;;26.53;17.20;;;19.40;99.90;;;20.10;100.00;98347.53;5025022;28;20454;-80
2023/06/23 02:58:41;;;;;;;24.13;16.67;;;19.40;99.90;;;20.11;100.00;98349.16;5025723;28;20470;-80
2023/06/23 03:01:14;;;;;;;27.80;16.10;;;19.50;99.90;;;20.10;100.00;98358.97;5023388;28;20979;-80
2023/06/23 03:03:45;;;;;;;31.00;17.73;;;19.50;99.90;;;20.06;100.00;98365.03;5024059;28;20466;-80
2023/06/23 03:06:19;;;;;;;25.90;15.23;;;19.60;99.90;;;20.07;100.00;98359.44;5022575;28;20466;-80
2023/06/23 03:08:49;;;;;;;26.77;17.10;;;19.50;99.90;;;20.02;100.00;98355.91;5021730;28;20466;-82
2023/06/23 03:11:18;;;;;;;29.20;18.20;;;19.50;99.90;;;20.07;100.00;98369.25;5021100;28;21047;-80
2023/06/23 03:13:49;;;;;;;34.40;18.07;;;19.50;99.90;;;20.07;100.00;98363.94;5022839;28;20470;-80
2023/06/23 03:16:31;;;;;;;72.60;43.70;;;19.50;99.90;;;19.96;100.00;98365.63;5022344;28;20490;-77
2023/06/23 03:19:16;;;;;;;27.90;15.80;;;19.50;99.90;;;19.93;100.00;98371.41;5024036;28;21472;-80
2023/06/23 03:22:00;;;;;;;28.03;16.73;;;19.40;99.90;;;19.82;100.00;98374.16;5021237;28;21005;-81
2023/06/23 03:24:31;;;;;;;21.90;15.87;;;19.40;99.90;;;19.83;100.00;98376.53;5021095;28;20474;-79
2023/06/23 03:27:06;;;;;;;22.17;15.70;;;19.30;99.90;;;19.88;100.00;98386.47;5024118;28;20458;-79
2023/06/23 03:29:47;;;;;;;23.47;15.77;;;19.30;99.90;;;19.83;100.00;98383.69;5026151;28;20466;-80
2023/06/23 03:32:26;;;;;;;26.77;16.50;;;19.30;99.90;;;19.77;100.00;98392.63;5021345;28;20469;-80
2023/06/23 03:35:03;;;;;;;27.03;17.43;;;19.20;99.90;;;19.77;100.00;98395.28;5025288;28;20523;-80
2023/06/23 03:37:36;;;;;;;26.47;16.00;;;19.20;99.90;;;19.81;100.00;98397.22;5023907;28;20454;-80
2023/06/23 03:40:13;;;;;;;23.70;17.00;;;19.20;99.90;;;19.81;100.00;98399.06;5022912;28;20478;-80
2023/06/23 03:42:50;;;;;;;29.43;17.33;;;19.20;99.90;;;19.74;100.00;98411.69;5021360;28;20465;-80
2023/06/23 03:45:23;;;;;;;22.00;14.90;;;19.30;99.90;;;19.79;100.00;98409.09;5021187;28;20836;-80
2023/06/23 03:48:01;;;;;;;22.00;15.03;;;19.20;99.90;;;19.80;100.00;98416.03;5020349;28;20466;-80
2023/06/23 03:50:36;;;;;;;24.50;15.80;;;19.10;99.90;;;19.79;100.00;98427.69;5023479;28;20465;-80
2023/06/23 03:53:07;;;;;;;25.40;16.80;;;19.20;99.90;;;19.73;100.00;98437.41;5024053;28;20467;-80
2023/06/23 03:55:39;;;;;;;24.83;14.83;;;19.20;99.90;;;19.75;100.00;98445.16;5024455;28;21626;-80
2023/06/23 03:58:11;;;;;;;20.03;14.80;;;19.20;99.90;;;19.72;100.00;98445.59;5026104;28;20466;-79
2023/06/23 04:00:41;;;;;;;21.80;15.30;;;19.20;99.90;;;19.64;100.00;98445.97;5022333;28;20494;-80
2023/06/23 04:03:13;;;;;;;23.13;15.60;;;19.20;99.90;;;19.62;100.00;98456.81;5024497;28;20836;-80
2023/06/23 04:05:45;;;;;;;19.20;14.57;;;19.10;99.90;;;19.55;100.00;98449.00;5023480;28;20473;-80
2023/06/23 04:08:17;;;;;;;30.30;14.80;;;19.10;99.90;;;19.63;100.00;98460.28;5026405;28;20825;-80
2023/06/23 04:10:48;;;;;;;23.60;14.67;;;19.10;99.90;;;19.57;100.00;98454.88;5025905;28;20561;-80
2023/06/23 04:13:19;;;;;;;21.67;14.90;;;19.00;99.90;;;19.55;100.00;98462.25;5026076;28;20523;-80
2023/06/23 04:15:53;;;;;;;21.77;14.23;;;19.10;99.90;;;19.49;100.00;98465.03;5023990;28;20571;-79
2023/06/23 04:18:28;;;;;;;19.00;13.20;;;19.10;99.90;;;19.52;100.00;98457.44;5027130;28;20489;-80
2023/06/23 04:20:59;;;;;;;23.40;13.67;;;19.00;99.90;;;19.62;100.00;98470.09;5025991;28;20509;-76
2023/06/23 04:23:33;;;;;;;21.87;12.87;;;19.00;99.90;;;19.51;100.00;98466.41;5024481;28;20465;-80
2023/06/23 04:26:04;;;;;;;23.70;13.57;;;19.00;99.90;;;19.54;100.00;98471.25;5026192;28;20465;-79
2023/06/23 04:28:36;;;;;;;24.27;13.37;;;19.00;99.90;;;19.57;100.00;98468.16;5025389;28;20552;-80
2023/06/23 04:31:10;;;;;;;17.43;12.60;;;19.00;99.90;;;19.59;100.00;98467.91;5025430;28;20474;-79
2023/06/23 04:33:41;;;;;;;24.90;13.23;;;19.00;99.90;;;19.57;100.00;98475.31;5024097;28;20469;-79
2023/06/23 04:36:16;;;;;;;21.80;14.20;;;19.00;99.90;;;19.55;100.00;98478.19;5025367;28;20472;-79
2023/06/23 04:38:54;;;;;;;20.97;12.80;;;19.00;99.90;;;19.57;100.00;98486.72;5023704;28;20465;-80
2023/06/23 04:41:29;;;;;;;19.47;11.87;;;19.10;99.90;;;19.56;100.00;98495.72;5024609;28;20493;-80
2023/06/23 04:44:04;;;;;;;27.80;17.03;;;19.10;99.90;;;19.53;100.00;98490.88;5025037;28;20956;-76
2023/06/23 04:46:40;;;;;;;20.00;13.70;;;19.00;99.90;;;19.59;100.00;98508.53;5024668;28;20465;-79
2023/06/23 04:49:14;;;;;;;18.50;13.20;;;19.00;99.90;;;19.56;100.00;98511.63;5027110;28;20656;-80
2023/06/23 04:51:49;;;;;;;22.50;13.87;;;19.00;99.90;;;19.63;100.00;98510.69;5028234;28;20856;-80
2023/06/23 04:54:27;;;;;;;21.70;13.70;;;19.00;99.90;;;19.61;100.00;98512.78;5027566;28;20492;-80
2023/06/23 04:57:02;;;;;;;24.30;13.53;;;19.10;99.90;;;19.60;100.00;98519.94;5025364;28;20454;-80
2023/06/23 04:59:38;;;;;;;19.90;13.60;;;19.10;99.90;;;19.58;100.00;98522.81;5001721;28;20882;-81
2023/06/23 05:02:13;;;;;;;20.70;12.03;;;19.00;99.90;;;19.55;100.00;98525.94;5024170;28;20572;-80
2023/06/23 05:04:47;;;;;;;23.03;11.67;;;19.10;99.90;;;19.53;100.00;98528.03;5024448;28;21004;-81
2023/06/23 05:07:18;;;;;;;19.73;12.07;;;19.10;99.90;;;19.53;100.00;98533.34;5025483;28;21038;-80
2023/06/23 05:09:50;;;;;;;17.40;11.37;;;19.10;99.90;;;19.58;100.00;98533.44;5025558;28;20481;-81
2023/06/23 05:12:24;;;;;;;17.07;10.93;;;19.00;99.90;;;19.57;100.00;98523.88;5023958;28;20481;-81
2023/06/23 05:14:59;;;;;;;14.07;10.17;;;19.10;99.90;;;19.63;100.00;98532.75;5024918;28;20461;-81
2023/06/23 05:17:30;;;;;;;15.67;9.70;;;19.00;99.90;;;19.69;100.00;98536.31;5024873;28;20461;-80
2023/06/23 05:20:06;;;;;;;15.33;9.80;;;19.00;99.90;;;19.65;100.00;98543.09;5022846;28;20465;-80
2023/06/23 05:22:38;;;;;;;13.60;10.00;;;19.10;99.90;;;19.52;100.00;98541.50;5023483;28;20585;-81
2023/06/23 05:25:11;;;;;;;17.20;12.07;;;19.00;99.90;;;19.51;100.00;98546.00;5025165;28;20468;-77
2023/06/23 05:27:45;;;;;;;16.40;9.27;;;19.00;99.90;;;19.55;100.00;98556.97;5025710;28;20458;-80
2023/06/23 05:30:18;;;;;;;13.37;9.30;;;19.00;99.90;;;19.61;100.00;98549.94;5021307;28;20462;-81
2023/06/23 05:32:51;;;;;;;16.40;9.27;;;19.00;99.90;;;19.62;100.00;98562.16;5021946;28;20478;-80
2023/06/23 05:35:24;;;;;;;15.17;9.10;;;19.00;99.90;;;19.61;100.00;98571.16;5024268;28;20497;-80
2023/06/23 05:37:54;;;;;;;15.73;10.00;;;19.10;99.90;;;19.51;100.00;98563.78;5024105;28;20531;-80
2023/06/23 05:40:23;;;;;;;15.03;8.67;;;19.10;99.90;;;19.52;100.00;98562.75;5021058;28;20855;-80
2023/06/23 05:42:53;;;;;;;13.13;8.60;;;18.90;99.90;;;19.58;100.00;98562.63;5025888;28;20470;-80
2023/06/23 05:45:25;;;;;;;9.30;7.17;;;19.00;99.90;;;19.59;100.00;98558.13;5024929;28;20489;-80
2023/06/23 05:48:03;;;;;;;12.37;8.50;;;19.10;99.90;;;19.55;100.00;98565.75;5024412;28;20466;-81
2023/06/23 05:50:38;;;;;;;10.80;7.80;;;19.10;99.90;;;19.47;100.00;98563.44;5024026;28;20462;-79
2023/06/23 05:53:16;;;;;;;13.90;7.67;;;19.00;99.90;;;19.48;100.00;98564.22;5023821;28;20465;-80
2023/06/23 05:55:51;;;;;;;10.10;7.80;;;19.10;99.90;;;19.39;100.00;98563.75;5023743;28;20458;-80
2023/06/23 05:58:30;;;;;;;12.77;7.77;;;19.00;99.90;;;19.49;100.00;98569.31;5024332;28;20460;-81
2023/06/23 06:01:04;;;;;;;11.60;7.77;;;19.00;99.90;;;19.51;100.00;98577.84;5022986;28;20494;-80
2023/06/23 06:03:40;;;;;;;10.03;7.60;;;19.00;99.90;;;19.58;100.00;98570.56;5020425;28;20473;-80
2023/06/23 06:06:12;;;;;;;12.10;8.10;;;19.00;99.90;;;19.56;100.00;98587.78;5021988;28;20473;-81
2023/06/23 06:08:44;;;;;;;8.73;6.70;;;19.00;99.90;;;19.63;100.00;98591.13;5023448;28;21347;-80
2023/06/23 06:11:16;;;;;;;8.57;5.90;;;19.00;99.90;;;19.67;100.00;98589.63;5023603;28;20995;-80
2023/06/23 06:13:48;;;;;;;11.07;5.90;;;19.00;99.90;;;19.67;100.00;98586.97;5023216;28;20462;-77
2023/06/23 06:16:19;;;;;;;12.03;7.70;;;19.10;99.90;;;19.73;100.00;98596.66;5022018;28;21010;-80
2023/06/23 06:18:53;;;;;;;7.93;5.90;;;19.00;99.90;;;19.77;100.00;98597.00;5024448;28;20980;-80
2023/06/23 06:21:27;;;;;;;8.60;6.53;;;19.10;99.90;;;19.77;100.00;98597.81;5020537;28;20528;-80
2023/06/23 06:23:58;;;;;;;10.80;6.43;;;19.10;99.90;;;19.72;100.00;98604.84;5024043;28;20470;-81
2023/06/23 06:26:28;;;;;;;12.23;6.00;;;19.20;99.90;;;19.76;100.00;98590.06;5022032;28;20472;-83
2023/06/23 06:28:59;;;;;;;7.80;6.10;;;19.20;99.90;;;19.67;100.00;98594.13;5024392;28;20466;-82
2023/06/23 06:31:33;;;;;;;7.40;5.10;;;19.30;99.90;;;19.66;100.00;98595.97;5022796;28;20475;-82
2023/06/23 06:34:04;;;;;;;8.70;5.20;;;19.20;99.90;;;19.73;100.00;98606.47;5024333;28;21358;-81
2023/06/23 06:36:38;;;;;;;10.13;5.73;;;19.20;99.90;;;19.70;100.00;98602.44;5022534;28;20500;-81
2023/06/23 06:39:07;;;;;;;8.27;5.00;;;19.20;99.90;;;19.70;100.00;98609.56;5024767;28;20470;-81
2023/06/23 06:41:39;;;;;;;6.70;4.80;;;19.20;99.90;;;19.76;100.00;98613.94;5023740;28;20580;-81
2023/06/23 06:44:08;;;;;;;7.93;4.73;;;19.20;99.90;;;19.77;100.00;98623.53;5023580;28;20465;-82
2023/06/23 06:46:39;;;;;;;6.70;4.40;;;19.30;99.90;;;19.77;100.00;98612.94;5022275;28;20473;-81
2023/06/23 06:49:11;;;;;;;9.70;5.40;;;19.20;99.90;;;19.83;100.00;98617.28;5023292;28;20454;-81
2023/06/23 06:51:44;;;;;;;8.10;4.63;;;19.20;99.90;;;19.85;100.00;98620.53;5022237;28;20465;-81
2023/06/23 06:54:13;;;;;;;6.00;4.27;;;19.20;99.90;;;19.85;100.00;98628.50;5023082;28;20469;-82
2023/06/23 06:56:42;;;;;;;7.07;4.10;;;19.30;99.90;;;19.82;100.00;98634.28;5022052;28;20462;-81
2023/06/23 06:59:12;;;;;;;8.77;4.30;;;19.40;99.90;;;19.85;100.00;98641.78;5023547;28;20505;-81
2023/06/23 07:01:43;;;;;;;6.00;3.83;;;19.40;99.90;;;19.83;100.00;98638.53;5023029;28;20497;-81
2023/06/23 07:04:13;;;;;;;7.33;4.33;;;19.40;99.90;;;19.84;100.00;98632.19;5019808;28;20528;-81
2023/06/23 07:06:43;;;;;;;10.20;5.00;;;19.30;99.90;;;19.86;100.00;98646.84;5022049;28;20531;-81
2023/06/23 07:09:12;;;;;;;7.70;4.27;;;19.40;99.90;;;19.86;100.00;98651.34;5021635;28;20968;-81
2023/06/23 07:11:40;;;;;;;10.87;4.57;;;19.40;99.90;;;19.87;100.00;98663.59;5021761;28;20472;-81
2023/06/23 07:14:09;;;;;;;8.70;4.83;;;19.50;99.90;;;19.89;100.00;98664.97;5023536;28;20539;-81
2023/06/23 07:16:38;;;;;;;6.10;4.40;;;19.50;99.90;;;19.96;100.00;98662.19;5022296;28;20494;-80
2023/06/23 07:19:08;;;;;;;9.20;4.23;;;19.50;99.90;;;20.04;100.00;98672.47;5024566;28;20516;-81
2023/06/23 07:21:36;;;;;;;5.30;3.70;;;19.50;99.90;;;20.10;100.00;98664.38;5021724;28;20586;-81
2023/06/23 07:24:06;;;;;;;6.47;4.67;;;19.60;99.90;;;20.04;100.00;98683.09;5021462;28;20457;-80
2023/06/23 07:26:37;;;;;;;12.53;4.10;;;19.60;99.90;;;20.02;100.00;98679.88;5022662;28;21050;-81
2023/06/23 07:29:06;;;;;;;7.07;4.33;;;19.60;99.90;;;20.10;100.00;98676.84;5022171;28;20461;-81
2023/06/23 07:31:38;;;;;;;7.03;4.20;;;19.50;99.90;;;20.11;100.00;98675.81;5021121;28;20466;-81
2023/06/23 07:34:06;;;;;;;6.73;4.07;;;19.60;99.90;;;20.18;100.00;98681.00;5023132;28;20543;-80
2023/06/23 07:36:35;;;;;;;9.10;4.73;;;19.60;99.90;;;20.14;100.00;98683.31;5023182;28;21010;-80
2023/06/23 07:39:08;;;;;;;9.10;4.67;;;19.70;99.90;;;20.21;100.00;98684.00;5022757;28;21393;-81
2023/06/23 07:41:37;;;;;;;9.80;5.40;;;19.70;99.90;;;20.31;100.00;98689.56;5020395;28;20520;-79
2023/06/23 07:44:06;;;;;;;6.63;3.63;;;19.70;99.90;;;20.41;100.00;98689.75;5023462;28;21094;-80
2023/06/23 07:46:36;;;;;;;9.13;4.50;;;19.80;99.90;;;20.46;100.00;98687.22;5021402;28;20457;-79
2023/06/23 07:49:05;;;;;;;7.30;5.77;;;19.90;99.90;;;20.52;100.00;98690.78;5020886;28;20458;-79
2023/06/23 07:51:34;;;;;;;8.23;4.60;;;19.90;99.90;;;20.55;100.00;98703.59;5020723;28;20462;-80
2023/06/23 07:54:03;;;;;;;5.30;4.57;;;20.00;99.90;;;20.55;100.00;98696.44;5024341;28;20461;-80
2023/06/23 07:56:36;;;;;;;9.67;5.10;;;20.10;99.90;;;20.53;100.00;98698.53;5024481;28;20839;-80
2023/06/23 07:59:05;;;;;;;5.93;4.50;;;20.10;99.90;;;20.56;100.00;98707.88;5023576;28;20449;-80
2023/06/23 08:01:34;;;;;;;6.03;3.97;;;20.10;99.90;;;20.61;100.00;98704.53;5020986;28;20820;-81
2023/06/23 08:04:03;;;;;;;8.60;4.83;;;20.10;99.90;;;20.65;100.00;98713.66;5021219;28;20489;-80
2023/06/23 08:06:32;;;;;;;8.23;6.00;;;20.20;99.90;;;20.65;100.00;98703.03;5019969;28;20473;-80
2023/06/23 08:09:00;;;;;;;7.90;4.20;;;20.20;99.90;;;20.66;100.00;98713.41;5021982;28;20476;-79
2023/06/23 08:11:29;;;;;;;6.13;4.00;;;20.20;99.90;;;20.72;100.00;98717.75;5021752;28;20469;-80
2023/06/23 08:14:00;;;;;;;7.30;3.83;;;20.20;99.90;;;20.74;100.00;98714.88;5022570;28;20878;-79
2023/06/23 08:16:29;;;;;;;7.10;4.30;;;20.20;99.90;;;20.74;100.00;98720.19;5022452;28;20489;-80
2023/06/23 08:18:58;;;;;;;7.43;4.40;;;20.30;99.90;;;20.77;100.00;98719.72;5022957;28;20474;-80
2023/06/23 08:21:27;;;;;;;5.27;3.90;;;20.30;99.80;;;20.76;99.52;98728.75;5021844;28;20462;-80
2023/06/23 08:23:55;;;;;;;6.90;4.30;;;20.20;99.60;;;20.83;99.70;98724.91;5022501;28;20576;-80
2023/06/23 08:26:24;;;;;;;5.33;3.30;;;20.30;99.60;;;20.90;99.23;98732.75;5021614;28;20498;-80
2023/06/23 08:28:53;;;;;;;8.93;6.07;;;20.20;99.50;;;21.00;98.98;98735.59;5020162;28;20884;-79
2023/06/23 08:31:23;;;;;;;10.60;5.20;;;20.30;99.80;;;21.09;99.56;98739.50;5022149;28;20647;-80
2023/06/23 08:33:53;;;;;;;4.93;3.70;;;20.40;99.90;;;21.12;99.13;98741.72;5022094;28;20520;-80
2023/06/23 08:36:21;;;;;;;7.10;3.83;;;20.50;99.80;;;21.16;96.80;98739.41;5022960;28;20553;-80
2023/06/23 08:38:50;;;;;;;7.30;4.00;;;20.50;99.20;;;21.23;95.49;98745.38;5024687;28;20472;-82
2023/06/23 08:41:22;;;;;;;6.07;3.40;;;20.60;99.20;;;21.24;94.27;98749.69;5026646;28;20466;-82
2023/06/23 08:43:54;;;;;;;7.73;3.90;;;20.70;98.80;;;21.26;94.80;98751.03;5028115;28;20482;-82
2023/06/23 08:46:31;;;;;;;4.43;3.50;;;20.70;99.00;;;21.31;94.65;98748.47;5029605;28;20523;-82
2023/06/23 08:49:16;;;;;;;7.17;3.33;;;20.70;98.80;;;21.36;94.07;98759.22;5029008;28;20465;-82
2023/06/23 08:51:45;;;;;;;5.60;3.30;;;20.70;98.70;;;21.37;93.58;98752.84;5028803;28;20473;-82
2023/06/23 08:54:15;;;;;;;10.13;4.20;;;20.80;98.60;;;21.40;92.70;98763.00;5027947;28;20972;-82
2023/06/23 08:56:45;;;;;;;8.60;4.20;;;20.90;98.40;;;21.45;91.54;98770.28;5028624;28;20987;-82
2023/06/23 08:59:15;;;;;;;11.70;3.97;;;20.80;98.20;;;21.48;91.43;98765.28;5028971;28;20467;-82
2023/06/23 09:01:45;;;;;;;5.23;3.70;;;20.90;98.20;;;21.50;90.23;98770.38;5027826;28;20500;-82
2023/06/23 09:04:14;;;;;;;6.57;3.90;;;21.00;98.10;;;21.57;90.88;98776.34;5029406;28;20502;-82
2023/06/23 09:06:43;;;;;;;6.73;3.10;;;21.00;98.30;;;21.63;91.23;98783.38;5029571;28;20462;-82
2023/06/23 09:09:12;;;;;;;5.80;3.40;;;21.10;98.40;;;21.67;90.69;98789.84;5027674;28;20497;-82
2023/06/23 09:11:44;;;;;;;8.00;3.20;;;21.10;98.20;;;21.69;90.49;98792.28;5027253;28;20843;-83
2023/06/23 09:14:14;;;;;;;12.90;4.13;;;21.10;98.30;;;21.78;89.83;98796.16;5029230;28;20501;-82
2023/06/23 09:16:45;;;;;;;4.60;3.00;;;21.10;98.00;;;21.82;88.16;98783.97;5026889;28;20889;-82
2023/06/23 09:19:15;;;;;;;3.83;2.77;;;21.10;97.50;;;21.81;84.22;98785.00;5025415;28;20650;-80
2023/06/23 09:21:48;;;;;;;5.37;3.00;;;21.20;96.60;;;21.86;84.12;98785.91;5022856;28;20462;-82
2023/06/23 09:24:17;;;;;;;3.60;2.73;;;21.30;96.80;;;21.92;85.09;98781.50;5023270;28;20567;-82
2023/06/23 09:26:50;;;;;;;4.20;3.33;;;21.40;96.90;;;21.95;84.34;98787.16;5025060;28;20474;-81
2023/06/23 09:29:21;;;;;;;4.90;3.80;;;21.30;96.60;;;21.96;82.46;98796.78;5024894;28;20474;-81
2023/06/23 09:31:54;;;;;;;4.00;3.03;;;21.40;96.30;;;21.97;81.17;98794.91;5022055;28;20474;-81
2023/06/23 09:34:26;;;;;;;7.40;4.63;;;21.40;95.90;;;22.03;80.45;98796.59;5025021;28;20588;-82
2023/06/23 09:37:07;;;;;;;6.70;3.73;;;21.40;95.80;;;22.08;79.13;98780.69;5024242;28;20976;-78
2023/06/23 09:39:37;;;;;;;6.53;3.17;;;21.50;95.60;;;22.15;79.87;98784.00;5021876;28;20463;-81
2023/06/23 09:42:11;;;;;;;4.50;3.43;;;21.50;95.90;;;22.24;80.56;98795.88;5025563;28;20474;-81
2023/06/23 09:44:42;;;;;;;6.57;3.20;;;21.60;96.00;;;22.16;78.49;98793.59;5023120;28;20492;-81
2023/06/23 09:47:16;;;;;;;26.87;14.17;;;21.70;95.40;;;22.13;77.73;98803.94;5022970;28;20870;-78
2023/06/23 09:49:46;;;;;;;4.30;3.03;;;21.70;95.00;;;22.08;76.57;98788.69;5022118;28;20971;-80
2023/06/23 09:52:23;;;;;;;6.73;3.07;;;21.70;94.70;;;22.13;77.73;98783.44;5022584;28;20981;-80
2023/06/23 09:54:52;;;;;;;4.67;2.60;;;21.70;95.10;;;22.20;76.85;98772.63;5024766;28;21589;-80
2023/06/23 09:57:21;;;;;;;4.60;3.37;;;21.70;95.00;;;22.24;75.11;98797.72;5023805;28;20984;-80
2023/06/23 09:59:53;;;;;;;3.67;2.73;;;21.60;94.60;;;22.29;75.85;98785.28;5023128;28;20478;-80
2023/06/23 10:02:25;;;;;;;6.27;2.90;;;21.70;94.60;;;22.29;74.72;98785.28;5023620;28;21084;-80
2023/06/23 10:05:01;;;;;;;3.50;3.10;;;21.80;94.60;;;22.36;76.86;98787.75;5024403;28;20572;-80
2023/06/23 10:07:31;;;;;;;5.40;2.87;;;21.70;95.10;;;22.41;77.41;98796.66;5023865;28;20492;-80
2023/06/23 10:10:04;;;;;;;3.80;3.20;;;21.80;95.30;;;22.36;71.08;98806.44;5022863;28;20831;-81
2023/06/23 10:12:41;;;;;;;4.10;3.07;;;21.90;93.40;;;22.39;70.42;98793.41;5023052;28;20458;-80
2023/06/23 10:15:12;;;;;;;4.00;2.50;;;21.90;93.40;;;22.46;70.57;98796.72;5022535;28;20879;-80
2023/06/23 10:17:42;;;;;;;3.70;3.00;;;21.90;93.50;;;22.52;70.26;98801.09;5023489;28;20848;-80
2023/06/23 10:20:11;;;;;;;3.37;2.37;;;21.90;93.50;;;22.57;70.91;98801.16;5025126;28;20486;-80
2023/06/23 10:22:42;;;;;;;3.17;2.63;;;21.90;93.50;;;22.59;71.42;98803.59;5022991;28;20463;-80
2023/06/23 10:25:12;;;;;;;3.77;2.60;;;22.00;93.70;;;22.63;70.94;98798.56;5022557;28;20490;-80
2023/06/23 10:27:44;;;;;;;3.93;2.67;;;22.10;93.60;;;22.61;66.87;98806.00;5022328;28;20557;-80
2023/06/23 10:30:18;;;;;;;4.63;2.63;;;22.20;92.30;;;22.63;65.50;98801.22;5022701;28;20836;-81